createdAt,value
2018-12-16T00:01:27.864Z,-6.26
2018-12-16T00:03:56.940Z,-6.35
2018-12-16T00:06:25.999Z,-6.37
2018-12-16T00:08:55.067Z,-6.42
2018-12-16T00:11:24.127Z,-6.39
2018-12-16T00:13:53.413Z,-6.33
2018-12-16T00:16:22.498Z,-6.42
2018-12-16T00:18:51.558Z,-6.45
2018-12-16T00:21:20.673Z,-6.55
2018-12-16T00:23:49.761Z,-6.60
2018-12-16T00:26:18.874Z,-6.64
2018-12-16T00:28:47.963Z,-6.69
2018-12-16T00:31:17.058Z,-6.65
2018-12-16T00:33:46.111Z,-6.53
2018-12-16T00:36:15.161Z,-6.49
2018-12-16T00:38:44.215Z,-6.57
2018-12-16T00:43:51.052Z,-6.54
2018-12-16T00:46:20.114Z,-6.44
2018-12-16T00:48:50.151Z,-6.22
2018-12-16T00:51:19.227Z,-6.26
2018-12-16T00:53:48.286Z,-6.18
2018-12-16T00:56:18.346Z,-6.26
2018-12-16T00:58:47.365Z,-6.23
2018-12-16T01:01:16.447Z,-6.21
2018-12-16T01:03:45.509Z,-6.20
2018-12-16T01:06:14.587Z,-6.15
2018-12-16T01:08:43.653Z,-6.14
2018-12-16T01:11:12.715Z,-6.13
2018-12-16T01:18:02.538Z,-6.04
2018-12-16T01:20:31.613Z,-6.04
2018-12-16T01:23:00.755Z,-6.03
2018-12-16T01:25:29.835Z,-6.04
2018-12-16T01:27:58.915Z,-6.08
2018-12-16T01:33:04.176Z,-6.13
2018-12-16T01:35:33.275Z,-6.02
2018-12-16T01:38:02.319Z,-6.08
2018-12-16T01:40:31.388Z,-6.14
2018-12-16T01:43:05.394Z,-6.20
2018-12-16T01:45:40.075Z,-6.15
2018-12-16T01:48:09.112Z,-6.16
2018-12-16T01:50:38.258Z,-6.22
2018-12-16T01:53:07.434Z,-6.22
2018-12-16T01:55:37.398Z,-6.26
2018-12-16T01:58:06.497Z,-6.19
2018-12-16T02:00:35.571Z,-6.09
2018-12-16T02:05:40.436Z,-6.03
2018-12-16T02:08:09.513Z,-6.01
2018-12-16T02:10:38.583Z,-6.06
2018-12-16T02:13:07.703Z,-6.03
2018-12-16T02:15:36.748Z,-6.10
2018-12-16T02:18:06.815Z,-6.06
2018-12-16T02:20:35.882Z,-6.00
2018-12-16T02:23:04.976Z,-6.00
2018-12-16T02:25:34.125Z,-5.89
2018-12-16T02:28:03.195Z,-5.90
2018-12-16T02:30:32.265Z,-5.89
2018-12-16T02:33:01.344Z,-5.78
2018-12-16T02:35:30.387Z,-5.83
2018-12-16T02:37:59.464Z,-5.82
2018-12-16T02:40:28.518Z,-5.76
2018-12-16T02:45:36.384Z,-5.73
2018-12-16T02:48:05.476Z,-5.68
2018-12-16T02:50:34.508Z,-5.86
2018-12-16T02:53:06.600Z,-5.83
2018-12-16T02:55:35.691Z,-5.85
2018-12-16T02:58:04.768Z,-5.76
2018-12-16T03:00:33.904Z,-5.71
2018-12-16T03:03:02.959Z,-5.77
2018-12-16T03:05:32.048Z,-5.73
2018-12-16T03:08:01.177Z,-5.63
2018-12-16T03:14:08.676Z,-5.57
2018-12-16T03:16:37.723Z,-5.53
2018-12-16T03:19:06.783Z,-5.27
2018-12-16T03:21:35.859Z,-5.20
2018-12-16T03:24:04.973Z,-5.13
2018-12-16T03:26:36.143Z,-5.10
2018-12-16T03:29:03.180Z,-5.23
2018-12-16T03:31:32.247Z,-5.19
2018-12-16T03:34:01.341Z,-5.09
2018-12-16T03:36:30.409Z,-5.11
2018-12-16T03:38:59.472Z,-5.05
2018-12-16T03:41:28.541Z,-4.82
2018-12-16T03:43:57.627Z,-4.89
2018-12-16T03:46:26.722Z,-4.77
2018-12-16T03:48:55.778Z,-4.89
2018-12-16T03:51:24.851Z,-4.68
2018-12-16T03:53:53.912Z,-4.97
2018-12-16T03:56:23.044Z,-5.34
2018-12-16T03:59:15.066Z,-5.49
2018-12-16T04:01:44.155Z,-5.42
2018-12-16T04:04:13.224Z,-5.47
2018-12-16T04:06:43.314Z,-5.52
2018-12-16T04:09:11.343Z,-5.62
2018-12-16T04:11:40.430Z,-5.58
2018-12-16T04:14:09.491Z,-5.19
2018-12-16T04:16:38.595Z,-5.37
2018-12-16T04:19:07.661Z,-5.42
2018-12-16T04:21:40.772Z,-5.16
2018-12-16T04:24:10.768Z,-4.96
2018-12-16T04:26:39.830Z,-5.16
2018-12-16T04:29:08.883Z,-5.31
2018-12-16T04:34:13.764Z,-5.32
2018-12-16T04:36:42.824Z,-5.05
2018-12-16T04:39:11.891Z,-5.01
2018-12-16T04:41:41.892Z,-4.75
2018-12-16T04:44:10.948Z,-4.93
2018-12-16T04:46:40.014Z,-5.14
2018-12-16T04:49:11.340Z,-5.08
2018-12-16T04:51:40.441Z,-5.29
2018-12-16T04:56:46.747Z,-5.13
2018-12-16T04:59:15.839Z,-5.28
2018-12-16T05:01:44.886Z,-5.51
2018-12-16T05:06:52.756Z,-5.46
2018-12-16T05:09:21.807Z,-5.38
2018-12-16T05:11:50.867Z,-5.61
2018-12-16T05:14:19.927Z,-5.72
2018-12-16T05:17:08.679Z,-5.49
2018-12-16T05:19:37.744Z,-5.34
2018-12-16T05:22:06.790Z,-5.50
2018-12-16T05:24:35.870Z,-5.65
2018-12-16T05:29:41.211Z,-5.34
2018-12-16T05:32:10.292Z,-5.39
2018-12-16T05:34:39.346Z,-5.46
2018-12-16T05:37:08.424Z,-5.00
2018-12-16T05:39:37.493Z,-4.84
2018-12-16T05:42:06.582Z,-5.15
2018-12-16T05:44:35.661Z,-5.05
2018-12-16T05:47:08.277Z,-5.13
2018-12-16T05:49:37.323Z,-5.18
2018-12-16T05:52:06.370Z,-5.28
2018-12-16T05:57:14.138Z,-5.19
2018-12-16T05:59:43.214Z,-5.07
2018-12-16T06:02:12.272Z,-5.10
2018-12-16T06:04:41.321Z,-5.23
2018-12-16T06:07:10.382Z,-5.15
2018-12-16T06:09:53.551Z,-5.23
2018-12-16T06:20:52.933Z,-5.01
2018-12-16T06:26:22.390Z,-4.70
2018-12-16T06:31:55.227Z,-4.31
2018-12-16T06:34:25.176Z,-4.19
2018-12-16T06:36:54.231Z,-4.39
2018-12-16T06:39:23.308Z,-4.42
2018-12-16T06:41:53.378Z,-4.52
2018-12-16T06:44:22.471Z,-4.27
2018-12-16T06:46:51.532Z,-4.50
2018-12-16T06:49:20.595Z,-4.52
2018-12-16T06:51:49.655Z,-4.42
2018-12-16T06:54:18.835Z,-4.48
2018-12-16T06:56:47.896Z,-4.57
2018-12-16T06:59:17.911Z,-4.32
2018-12-16T07:01:47.982Z,-4.46
2018-12-16T07:04:17.019Z,-4.48
2018-12-16T07:09:21.848Z,-4.36
2018-12-16T07:11:50.909Z,-4.29
2018-12-16T07:14:19.956Z,-4.03
2018-12-16T07:16:49.339Z,-3.84
2018-12-16T07:19:18.394Z,-3.60
2018-12-16T07:21:47.438Z,-3.43
2018-12-16T07:24:16.504Z,-3.42
2018-12-16T07:26:45.572Z,-3.05
2018-12-16T07:29:14.633Z,-3.22
2018-12-16T07:31:43.695Z,-3.29
2018-12-16T07:34:12.792Z,-3.44
2018-12-16T07:36:41.848Z,-3.59
2018-12-16T07:39:10.966Z,-3.67
2018-12-16T07:41:40.062Z,-3.68
2018-12-16T07:44:09.094Z,-3.39
2018-12-16T07:49:17.066Z,-2.67
2018-12-16T07:51:46.141Z,-3.26
2018-12-16T07:54:16.161Z,-3.31
2018-12-16T07:59:19.961Z,-2.63
2018-12-16T08:01:49.064Z,-2.51
2018-12-16T08:04:18.189Z,-2.84
2018-12-16T08:06:47.252Z,-2.91
2018-12-16T08:11:54.980Z,-2.45
2018-12-16T08:14:24.050Z,-1.96
2018-12-16T08:16:53.139Z,-2.00
2018-12-16T08:19:25.373Z,-2.16
2018-12-16T08:21:54.577Z,-2.22
2018-12-16T08:24:23.644Z,-2.34
2018-12-16T08:26:52.780Z,-2.39
2018-12-16T08:29:22.744Z,-2.19
2018-12-16T08:31:51.838Z,-1.87
2018-12-16T08:34:22.587Z,-1.79
2018-12-16T08:36:50.229Z,-1.59
2018-12-16T08:39:19.357Z,-1.44
2018-12-16T08:41:48.426Z,-1.55
2018-12-16T08:44:17.529Z,-2.01
2018-12-16T08:46:48.409Z,-2.24
2018-12-16T08:49:17.444Z,-1.92
2018-12-16T08:51:46.507Z,-1.79
2018-12-16T08:54:15.589Z,-2.45
2018-12-16T08:56:44.636Z,-2.79
2018-12-16T08:59:13.714Z,-2.61
2018-12-16T09:01:42.763Z,-1.97
2018-12-16T09:04:11.839Z,-1.63
2018-12-16T09:06:40.889Z,-1.84
2018-12-16T09:09:09.977Z,-3.12
2018-12-16T09:11:39.038Z,-2.47
2018-12-16T09:14:08.095Z,-2.03
2018-12-16T09:16:37.168Z,-2.42
2018-12-16T09:19:06.236Z,-2.69
2018-12-16T09:21:35.276Z,-2.47
2018-12-16T09:24:04.447Z,-2.64
2018-12-16T09:26:33.605Z,-2.39
2018-12-16T09:29:02.670Z,-2.14
2018-12-16T09:31:31.703Z,-2.18
2018-12-16T09:34:01.160Z,-2.15
2018-12-16T09:36:30.244Z,-1.47
2018-12-16T09:38:59.275Z,-1.29
2018-12-16T09:41:28.342Z,-1.65
2018-12-16T09:43:57.395Z,-1.33
2018-12-16T09:46:26.534Z,-1.46
2018-12-16T09:48:55.730Z,-1.33
2018-12-16T09:51:24.800Z,-0.66
2018-12-16T09:54:02.722Z,-0.26
2018-12-16T09:56:42.471Z,-0.61
2018-12-16T09:59:21.647Z,0.15
2018-12-16T10:04:32.072Z,-0.84
2018-12-16T10:07:01.140Z,-1.25
2018-12-16T10:09:30.194Z,-0.28
2018-12-16T10:12:00.267Z,-0.02
2018-12-16T10:14:29.332Z,-0.26
2018-12-16T10:16:58.410Z,-0.34
2018-12-16T10:19:27.460Z,0.04
2018-12-16T10:21:58.492Z,-1.16
2018-12-16T10:24:27.548Z,-1.30
2018-12-16T10:26:56.612Z,-1.81
2018-12-16T10:29:25.736Z,-1.17
2018-12-16T10:31:54.792Z,-1.28
2018-12-16T10:34:23.871Z,-1.64
2018-12-16T10:36:52.939Z,-1.66
2018-12-16T10:39:22.916Z,-1.40
2018-12-16T10:41:52.915Z,-1.45
2018-12-16T10:44:22.004Z,-1.05
2018-12-16T10:46:51.077Z,-1.26
2018-12-16T10:49:21.147Z,-1.40
2018-12-16T10:51:50.216Z,-0.98
2018-12-16T10:54:19.263Z,-0.75
2018-12-16T10:56:48.310Z,-0.85
2018-12-16T10:59:17.391Z,-0.71
2018-12-16T11:01:46.441Z,-0.94
2018-12-16T11:04:15.514Z,-1.40
2018-12-16T11:06:44.550Z,-1.43
2018-12-16T11:09:13.621Z,-1.31
2018-12-16T11:14:18.417Z,-0.94
2018-12-16T11:16:47.474Z,-1.33
2018-12-16T11:19:16.645Z,-1.17
2018-12-16T11:21:45.695Z,-1.24
2018-12-16T11:24:14.756Z,-1.14
2018-12-16T11:26:43.883Z,-0.92
2018-12-16T11:29:12.942Z,-0.62
2018-12-16T11:31:41.996Z,-0.70
2018-12-16T11:34:12.045Z,-0.17
2018-12-16T11:36:41.088Z,-0.46
2018-12-16T11:39:10.139Z,-0.45
2018-12-16T11:44:14.393Z,-0.11
2018-12-16T11:46:43.454Z,0.44
2018-12-16T11:49:12.495Z,0.05
2018-12-16T11:51:41.590Z,-0.13
2018-12-16T11:56:46.600Z,0.17
2018-12-16T11:59:15.643Z,-0.10
2018-12-16T12:01:44.699Z,-0.03
2018-12-16T12:04:13.880Z,0.13
2018-12-16T12:06:42.950Z,0.49
2018-12-16T12:09:12.006Z,0.69
2018-12-16T12:11:41.169Z,0.41
2018-12-16T12:16:45.975Z,0.09
2018-12-16T12:19:15.995Z,0.22
2018-12-16T12:24:23.730Z,0.90
2018-12-16T12:26:52.773Z,0.83
2018-12-16T12:29:21.866Z,0.78
2018-12-16T12:31:50.928Z,0.94
2018-12-16T12:34:19.968Z,0.98
2018-12-16T12:36:49.034Z,0.84
2018-12-16T12:39:18.094Z,0.76
2018-12-16T12:41:54.710Z,0.77
2018-12-16T12:44:23.739Z,0.41
2018-12-16T12:46:53.031Z,0.33
2018-12-16T12:49:22.058Z,0.09
2018-12-16T12:51:51.130Z,0.26
2018-12-16T12:54:20.256Z,0.09
2018-12-16T12:56:49.295Z,0.21
2018-12-16T12:59:18.334Z,0.44
2018-12-16T13:01:47.414Z,1.01
2018-12-16T13:06:53.222Z,0.82
2018-12-16T13:09:22.292Z,1.26
2018-12-16T13:11:51.364Z,1.28
2018-12-16T13:16:56.088Z,0.92
2018-12-16T13:19:25.243Z,0.48
2018-12-16T13:21:54.275Z,0.07
2018-12-16T13:24:23.335Z,0.11
2018-12-16T13:26:53.293Z,0.11
2018-12-16T13:29:23.087Z,0.10
2018-12-16T13:31:52.139Z,0.33
2018-12-16T13:34:21.203Z,0.61
2018-12-16T13:36:50.300Z,0.82
2018-12-16T13:39:19.492Z,1.00
2018-12-16T13:41:49.461Z,1.10
2018-12-16T13:44:18.512Z,1.26
2018-12-16T13:46:47.569Z,1.33
2018-12-16T13:49:16.815Z,1.54
2018-12-16T13:51:45.904Z,1.84
2018-12-16T13:54:15.076Z,1.97
2018-12-16T13:56:44.146Z,2.32
2018-12-16T13:59:13.299Z,2.37
2018-12-16T14:01:42.409Z,2.43
2018-12-16T14:04:11.502Z,2.07
2018-12-16T14:06:43.039Z,2.02
2018-12-16T14:09:12.101Z,2.12
2018-12-16T14:11:41.175Z,2.20
2018-12-16T14:14:10.301Z,2.28
2018-12-16T14:16:46.229Z,2.27
2018-12-16T14:19:15.454Z,2.42
2018-12-16T14:21:44.488Z,2.36
2018-12-16T14:24:13.634Z,2.34
2018-12-16T14:26:42.670Z,2.48
2018-12-16T14:29:11.743Z,2.45
2018-12-16T14:31:40.775Z,2.26
2018-12-16T14:34:09.827Z,2.00
2018-12-16T14:36:38.862Z,2.15
2018-12-16T14:44:22.827Z,2.27
2018-12-16T14:46:51.912Z,2.42
2018-12-16T14:49:20.954Z,2.41
2018-12-16T14:51:50.011Z,2.52
2018-12-16T14:54:23.637Z,2.57
2018-12-16T14:56:52.660Z,2.56
2018-12-16T14:59:21.799Z,2.59
2018-12-16T15:01:51.974Z,2.55
2018-12-16T15:04:21.105Z,2.61
2018-12-16T15:06:50.143Z,2.53
2018-12-16T15:09:19.235Z,2.19
2018-12-16T15:11:48.279Z,1.96
2018-12-16T15:14:17.485Z,1.87
2018-12-16T15:16:47.044Z,1.91
2018-12-16T15:24:29.077Z,2.18
2018-12-16T15:26:58.126Z,2.11
2018-12-16T15:29:27.194Z,2.07
2018-12-16T15:31:56.254Z,2.16
2018-12-16T15:39:36.801Z,2.43
2018-12-16T15:42:05.847Z,2.38
2018-12-16T15:44:35.474Z,2.41
2018-12-16T15:49:40.322Z,2.49
2018-12-16T15:52:09.394Z,2.55
2018-12-16T15:54:38.453Z,2.57
2018-12-16T15:59:43.195Z,2.59
2018-12-16T16:02:12.251Z,2.54
2018-12-16T16:04:41.301Z,2.38
2018-12-16T16:07:10.348Z,2.27
2018-12-16T16:09:39.385Z,2.26
2018-12-16T16:12:08.438Z,2.19
2018-12-16T16:14:38.397Z,2.13
2018-12-16T16:19:43.272Z,2.15
2018-12-16T16:24:48.067Z,2.36
2018-12-16T16:27:17.106Z,2.45
2018-12-16T16:29:55.019Z,2.54
2018-12-16T16:32:25.257Z,2.26
2018-12-16T16:34:54.303Z,2.08
2018-12-16T16:37:24.347Z,1.97
2018-12-16T16:39:53.393Z,1.91
2018-12-16T16:42:22.471Z,1.83
2018-12-16T16:44:51.543Z,1.72
2018-12-16T16:47:20.584Z,1.43
2018-12-16T16:49:49.662Z,1.40
2018-12-16T16:52:18.741Z,1.39
2018-12-16T16:54:47.806Z,1.33
2018-12-16T16:59:52.610Z,1.27
2018-12-16T17:02:21.725Z,1.17
2018-12-16T17:04:50.851Z,0.99
2018-12-16T17:07:19.899Z,1.03
2018-12-16T17:09:48.974Z,1.03
2018-12-16T17:12:18.058Z,0.92
2018-12-16T17:17:22.848Z,0.93
2018-12-16T17:19:51.896Z,0.86
2018-12-16T17:22:20.950Z,0.51
2018-12-16T17:24:49.998Z,0.38
2018-12-16T17:29:54.799Z,0.62
2018-12-16T17:32:23.848Z,0.69
2018-12-16T17:37:29.863Z,0.60
2018-12-16T17:39:58.968Z,0.59
2018-12-16T17:42:28.036Z,0.46
2018-12-16T17:44:57.075Z,0.46
2018-12-16T17:47:27.437Z,0.64
2018-12-16T17:49:56.478Z,0.77
2018-12-16T17:52:25.536Z,0.73
2018-12-16T17:54:54.594Z,0.67
2018-12-16T17:57:23.632Z,0.64
2018-12-16T17:59:52.718Z,0.55
2018-12-16T18:02:21.782Z,0.47
2018-12-16T18:04:50.835Z,0.33
2018-12-16T18:07:19.891Z,0.17
2018-12-16T18:09:48.964Z,0.19
2018-12-16T18:12:22.193Z,0.29
2018-12-16T18:14:51.267Z,-0.03
2018-12-16T18:17:21.276Z,-0.02
2018-12-16T18:19:52.907Z,-0.11
2018-12-16T18:22:26.328Z,-0.31
2018-12-16T18:24:55.463Z,-0.19
2018-12-16T18:27:24.528Z,-0.03
2018-12-16T18:29:53.649Z,0.05
2018-12-16T18:32:23.622Z,-0.05
2018-12-16T18:34:52.690Z,-0.24
2018-12-16T18:39:57.509Z,-0.59
2018-12-16T18:42:26.576Z,-0.70
2018-12-16T18:44:55.629Z,-0.91
2018-12-16T18:47:24.719Z,-1.16
2018-12-16T18:49:53.783Z,-1.05
2018-12-16T18:52:22.857Z,-0.90
2018-12-16T18:54:51.963Z,-0.62
2018-12-16T18:57:21.034Z,-0.41
2018-12-16T19:01:22.269Z,-0.55
2018-12-16T19:11:54.010Z,-0.28
2018-12-16T19:14:23.077Z,-0.38
2018-12-16T19:16:56.344Z,-0.20
2018-12-16T19:19:26.340Z,0.09
2018-12-16T19:22:31.666Z,0.19
2018-12-16T19:25:00.707Z,0.18
2018-12-16T19:27:29.773Z,0.15
2018-12-16T19:29:58.854Z,0.10
2018-12-16T19:32:28.239Z,-0.03
2018-12-16T19:34:57.315Z,-0.06
2018-12-16T19:37:26.387Z,-0.17
2018-12-16T19:39:55.502Z,-0.43
2018-12-16T19:42:24.586Z,-0.59
2018-12-16T19:44:53.671Z,-0.51
2018-12-16T19:47:22.731Z,-0.49
2018-12-16T19:49:52.903Z,-0.58
2018-12-16T19:52:24.561Z,-0.71
2018-12-16T19:54:54.111Z,-0.54
2018-12-16T19:57:24.195Z,-0.55
2018-12-16T19:59:54.761Z,-0.48
2018-12-16T20:02:23.309Z,-0.60
2018-12-16T20:05:07.316Z,-0.81
2018-12-16T20:07:36.410Z,-0.80
2018-12-16T20:10:07.526Z,-0.86
2018-12-16T20:12:37.654Z,-1.08
2018-12-16T20:15:06.737Z,-1.21
2018-12-16T20:17:35.841Z,-1.08
2018-12-16T20:20:04.915Z,-1.26
2018-12-16T20:22:33.964Z,-1.17
2018-12-16T20:25:03.055Z,-1.13
2018-12-16T20:27:32.120Z,-0.95
2018-12-16T20:30:01.231Z,-0.89
2018-12-16T20:32:30.323Z,-1.02
2018-12-16T20:34:59.393Z,-0.96
2018-12-16T20:37:28.510Z,-1.06
2018-12-16T20:40:07.791Z,-1.01
2018-12-16T20:45:13.099Z,-0.79
2018-12-16T20:47:42.155Z,-0.70
2018-12-16T20:50:11.256Z,-0.65
2018-12-16T20:52:40.309Z,-0.66
2018-12-16T20:55:09.392Z,-0.60
2018-12-16T20:57:38.479Z,-0.49
2018-12-16T21:00:07.549Z,-0.36
2018-12-16T21:02:36.639Z,-0.31
2018-12-16T21:05:06.683Z,-0.31
2018-12-16T21:07:35.799Z,-0.29
2018-12-16T21:10:05.837Z,-0.29
2018-12-16T21:15:37.082Z,-0.22
2018-12-16T21:18:11.675Z,-0.20
2018-12-16T21:20:40.852Z,-0.17
2018-12-16T21:23:10.842Z,-0.16
2018-12-16T21:25:40.041Z,-0.17
2018-12-16T21:28:09.167Z,-0.33
2018-12-16T21:30:38.227Z,-0.35
2018-12-16T21:33:07.345Z,-0.36
2018-12-16T21:35:36.376Z,-0.32
2018-12-16T21:38:05.516Z,-0.22
2018-12-16T21:43:10.481Z,-0.10
2018-12-16T21:45:39.591Z,-0.09
2018-12-16T21:48:12.796Z,-0.19
2018-12-16T21:50:41.891Z,-0.40
2018-12-16T21:53:10.983Z,-0.65
2018-12-16T21:55:40.116Z,-0.67
2018-12-16T21:58:09.869Z,-0.77
2018-12-16T22:00:39.966Z,-0.68
2018-12-16T22:03:09.171Z,-0.47
2018-12-16T22:08:15.067Z,-0.25
2018-12-16T22:10:46.229Z,-0.23
2018-12-16T22:13:24.970Z,-0.36
2018-12-16T22:15:54.261Z,-0.47
2018-12-16T22:18:23.353Z,-0.57
2018-12-16T22:20:52.486Z,-0.65
2018-12-16T22:23:21.615Z,-0.72
2018-12-16T22:25:50.723Z,-1.02
2018-12-16T22:30:58.481Z,-1.09
2018-12-16T22:33:27.627Z,-1.31
2018-12-16T22:35:57.416Z,-1.57
2018-12-16T22:38:29.962Z,-1.78
2018-12-16T22:40:59.048Z,-2.27
2018-12-16T22:43:28.111Z,-2.55
2018-12-16T22:45:57.237Z,-2.64
2018-12-16T22:48:26.312Z,-2.32
2018-12-16T22:50:55.493Z,-2.15
2018-12-16T22:53:24.575Z,-2.19
2018-12-16T22:55:54.614Z,-2.27
2018-12-16T22:58:25.943Z,-2.38
2018-12-16T23:01:00.445Z,-2.42
2018-12-16T23:03:29.502Z,-2.46
2018-12-16T23:05:58.593Z,-2.27
2018-12-16T23:08:27.795Z,-2.29
2018-12-16T23:10:57.010Z,-2.31
2018-12-16T23:13:26.106Z,-2.24
2018-12-16T23:15:56.066Z,-2.32
2018-12-16T23:18:25.290Z,-2.31
2018-12-16T23:20:54.427Z,-2.32
2018-12-16T23:23:23.551Z,-2.52
2018-12-16T23:25:53.533Z,-2.55
2018-12-16T23:28:22.594Z,-2.66
2018-12-16T23:30:51.786Z,-2.82
2018-12-16T23:33:20.847Z,-3.20
2018-12-16T23:35:49.954Z,-3.35
2018-12-16T23:38:19.001Z,-3.47
2018-12-16T23:40:48.091Z,-3.65
2018-12-16T23:43:17.174Z,-3.64
2018-12-16T23:45:48.158Z,-3.62
2018-12-16T23:48:18.172Z,-3.61
2018-12-16T23:50:47.245Z,-3.68
2018-12-16T23:53:16.311Z,-3.61
2018-12-16T23:58:21.168Z,-3.57
